Time;durP1;ratioP1;P1;durP2;ratioP2;P2;SDS_P1;SDS_P2;PMS_P1;PMS_P2;Temp;Humidity;BMP_temperature;BMP_pressure;BME280_temperature;BME280_humidity;BME280_pressure;Samples;Min_cycle;Max_cycle;Signal;HPM_P1;HPM_P2
2023/05/02 00:00:32;;;;;;;2.03;1.00;;;9.30;75.50;;;;;;5103719;28;20414;-79
2023/05/02 00:03:02;;;;;;;6.38;1.00;;;9.30;75.70;;;;;;5112529;28;20058;-79
2023/05/02 00:05:30;;;;;;;2.92;1.13;;;9.20;76.10;;;;;;5094916;28;20043;-80
2023/05/02 00:07:57;;;;;;;2.72;1.33;;;9.20;76.60;;;;;;5112018;28;20136;-80
2023/05/02 00:10:24;;;;;;;2.80;1.42;;;9.20;76.80;;;;;;5114800;28;20054;-80
2023/05/02 00:12:51;;;;;;;2.17;1.00;;;9.10;77.30;;;;;;5113756;28;20043;-80
2023/05/02 00:15:19;;;;;;;1.48;1.25;;;9.00;78.10;;;;;;5112231;28;20059;-80
2023/05/02 00:17:46;;;;;;;3.03;1.00;;;9.00;79.10;;;;;;5114535;28;20056;-78
2023/05/02 00:20:15;;;;;;;2.22;1.30;;;8.90;80.40;;;;;;5112961;28;20047;-79
2023/05/02 00:22:42;;;;;;;1.67;1.17;;;8.90;81.60;;;;;;5090417;28;20054;-79
2023/05/02 00:25:14;;;;;;;1.50;1.10;;;8.80;82.30;;;;;;5128968;28;20685;-78
2023/05/02 00:27:42;;;;;;;2.00;1.25;;;8.80;83.20;;;;;;5125500;28;20115;-77
2023/05/02 00:30:10;;;;;;;1.20;1.10;;;8.80;84.80;;;;;;5119927;28;20043;-77
2023/05/02 00:32:38;;;;;;;5.28;1.40;;;8.70;86.70;;;;;;5121119;28;20047;-77
2023/05/02 00:35:07;;;;;;;2.53;1.35;;;8.60;88.20;;;;;;5125562;28;20093;-79
2023/05/02 00:37:36;;;;;;;1.88;1.17;;;8.60;90.00;;;;;;5124469;28;20047;-79
2023/05/02 00:40:04;;;;;;;2.67;1.20;;;8.50;91.40;;;;;;5121953;28;20039;-79
2023/05/02 00:42:34;;;;;;;1.38;1.25;;;8.50;93.70;;;;;;5104412;28;20059;-79
2023/05/02 00:45:05;;;;;;;1.55;1.25;;;8.50;96.80;;;;;;5111046;28;20039;-78
2023/05/02 00:47:33;;;;;;;5.05;1.80;;;8.50;99.90;;;;;;5111839;28;20047;-80
2023/05/02 00:50:00;;;;;;;2.80;1.35;;;8.50;99.90;;;;;;5113363;28;20109;-81
2023/05/02 00:52:28;;;;;;;3.97;1.50;;;8.40;99.90;;;;;;5112531;28;20047;-79
2023/05/02 00:54:57;;;;;;;4.18;1.50;;;8.30;99.90;;;;;;5107903;28;20054;-79
2023/05/02 00:57:25;;;;;;;1.20;1.10;;;8.20;99.90;;;;;;5111663;28;20456;-78
2023/05/02 00:59:52;;;;;;;3.60;3.20;;;8.20;99.90;;;;;;5088705;28;20051;-78
2023/05/02 01:02:32;;;;;;;3.90;2.28;;;8.20;99.90;;;;;;5111789;28;20044;-79
2023/05/02 01:05:09;;;;;;;4.20;1.83;;;8.20;99.90;;;;;;5093474;28;20508;-78
2023/05/02 01:07:51;;;;;;;6.45;1.45;;;8.20;99.90;;;;;;5108904;28;20082;-80
2023/05/02 01:10:37;;;;;;;1.83;1.23;;;8.20;99.90;;;;;;5111856;28;20376;-79
2023/05/02 01:13:14;;;;;;;2.92;1.38;;;8.20;99.90;;;;;;5093862;28;20044;-80
2023/05/02 01:15:42;;;;;;;1.52;1.42;;;8.10;99.90;;;;;;5107202;27;20524;-79
2023/05/02 01:18:12;;;;;;;2.45;1.40;;;8.10;99.90;;;;;;5105424;28;20071;-80
2023/05/02 01:20:42;;;;;;;2.30;1.80;;;8.00;99.90;;;;;;5093317;28;20114;-80
2023/05/02 01:23:19;;;;;;;1.85;1.58;;;8.00;99.90;;;;;;5100571;28;20504;-80
2023/05/02 01:26:03;;;;;;;1.85;1.52;;;7.90;99.90;;;;;;5110721;28;20627;-80
2023/05/02 01:28:40;;;;;;;3.60;1.58;;;8.00;99.90;;;;;;5111704;28;20301;-80
2023/05/02 01:31:10;;;;;;;2.00;1.38;;;7.90;99.90;;;;;;5111849;28;20048;-81
2023/05/02 01:33:39;;;;;;;2.75;1.50;;;7.90;99.90;;;;;;5084202;28;20051;-81
2023/05/02 01:36:08;;;;;;;4.00;2.53;;;7.90;99.90;;;;;;5088663;28;20040;-79
2023/05/02 01:38:37;;;;;;;2.30;1.65;;;7.90;99.90;;;;;;5110583;28;20054;-80
2023/05/02 01:41:06;;;;;;;5.57;2.15;;;7.90;99.90;;;;;;5111784;28;20043;-80
2023/05/02 01:43:35;;;;;;;2.58;1.45;;;7.80;99.90;;;;;;5109548;28;20054;-80
2023/05/02 01:46:04;;;;;;;4.30;1.65;;;7.80;99.90;;;;;;5110773;28;20047;-80
2023/05/02 01:48:34;;;;;;;2.03;1.92;;;7.70;99.90;;;;;;5111746;28;20416;-79
2023/05/02 01:51:04;;;;;;;4.65;1.92;;;7.70;99.90;;;;;;5104385;28;20039;-80
2023/05/02 01:53:33;;;;;;;2.80;1.80;;;7.70;99.90;;;;;;5109816;28;20461;-80
2023/05/02 01:56:01;;;;;;;1.95;1.42;;;7.60;99.90;;;;;;5109696;28;20411;-79
2023/05/02 01:58:32;;;;;;;1.90;1.70;;;7.60;99.90;;;;;;5094541;28;20044;-80
2023/05/02 02:01:01;;;;;;;5.57;2.10;;;7.50;99.90;;;;;;5104443;28;20414;-79
2023/05/02 02:03:30;;;;;;;3.47;2.03;;;7.50;99.90;;;;;;5089494;28;20044;-79
2023/05/02 02:06:05;;;;;;;2.65;1.92;;;7.50;99.90;;;;;;5099246;28;20059;-89
2023/05/02 02:08:32;;;;;;;3.38;2.17;;;7.50;99.90;;;;;;5111939;28;20051;-86
2023/05/02 02:11:04;;;;;;;4.05;2.20;;;7.30;99.90;;;;;;5090353;28;20101;-88
2023/05/02 02:13:37;;;;;;;2.72;2.03;;;7.30;99.90;;;;;;5111885;28;20051;-88
2023/05/02 02:16:08;;;;;;;5.85;3.15;;;7.30;99.90;;;;;;5109441;28;20044;-87
2023/05/02 02:18:37;;;;;;;4.10;2.20;;;7.20;99.90;;;;;;5101929;28;20075;-78
2023/05/02 02:21:11;;;;;;;4.38;2.70;;;7.20;99.90;;;;;;5099550;28;20096;-78
2023/05/02 02:23:43;;;;;;;4.05;2.38;;;7.20;99.90;;;;;;5112549;28;20048;-89
2023/05/02 02:26:12;;;;;;;3.95;2.50;;;7.10;99.90;;;;;;5090415;28;20496;-87
2023/05/02 02:28:40;;;;;;;3.38;2.70;;;7.00;99.90;;;;;;5107600;28;20048;-78
2023/05/02 02:31:07;;;;;;;4.85;2.72;;;7.00;99.90;;;;;;5110643;28;20512;-78
2023/05/02 02:33:34;;;;;;;4.63;2.65;;;7.00;99.90;;;;;;5113902;28;20067;-78
2023/05/02 02:36:12;;;;;;;3.92;2.95;;;7.00;99.90;;;;;;5114510;28;20130;-80
2023/05/02 02:38:46;;;;;;;7.20;2.55;;;7.00;99.90;;;;;;5107713;28;20050;-80
2023/05/02 02:41:18;;;;;;;3.67;2.83;;;6.90;99.90;;;;;;5111553;28;20052;-79
2023/05/02 02:44:00;;;;;;;5.35;3.20;;;6.90;99.90;;;;;;5111515;28;20051;-79
2023/05/02 02:46:35;;;;;;;3.97;3.47;;;6.90;99.90;;;;;;5085799;28;20058;-79
2023/05/02 02:49:18;;;;;;;7.90;3.20;;;6.70;99.90;;;;;;5084091;28;20039;-78
2023/05/02 02:51:57;;;;;;;6.57;3.70;;;6.70;99.90;;;;;;5107915;28;20052;-78
2023/05/02 02:54:41;;;;;;;5.68;3.30;;;6.60;99.90;;;;;;5091966;28;20481;-79
2023/05/02 02:57:17;;;;;;;4.50;3.67;;;6.60;99.90;;;;;;5098122;28;20044;-78
2023/05/02 02:59:54;;;;;;;4.32;3.92;;;6.70;99.90;;;;;;5108220;28;20503;-78
2023/05/02 03:02:27;;;;;;;4.60;3.00;;;6.70;99.90;;;;;;5098628;28;20055;-78
2023/05/02 03:04:57;;;;;;;4.93;3.20;;;6.70;99.90;;;;;;5104130;28;20142;-78
2023/05/02 03:07:28;;;;;;;4.13;3.72;;;6.60;99.90;;;;;;5106986;28;20561;-78
2023/05/02 03:09:57;;;;;;;5.57;3.67;;;6.60;99.90;;;;;;5109528;28;20039;-79
2023/05/02 03:12:25;;;;;;;4.50;4.10;;;6.70;99.90;;;;;;5077776;28;20040;-83
2023/05/02 03:14:55;;;;;;;6.07;3.25;;;6.80;99.90;;;;;;5109739;28;20059;-89
2023/05/02 03:17:23;;;;;;;6.47;3.50;;;6.90;99.90;;;;;;5111204;28;20445;-89
2023/05/02 03:19:50;;;;;;;5.97;4.13;;;6.90;99.90;;;;;;5076034;28;20048;-87
2023/05/02 03:22:17;;;;;;;5.53;4.05;;;6.90;99.90;;;;;;5109215;28;20058;-89
2023/05/02 03:24:46;;;;;;;4.40;3.15;;;7.00;99.90;;;;;;5109471;28;20496;-89
2023/05/02 03:27:15;;;;;;;5.65;3.45;;;7.00;99.90;;;;;;5111057;28;20442;-87
2023/05/02 03:29:43;;;;;;;7.57;3.75;;;7.10;99.90;;;;;;5110200;28;20035;-88
2023/05/02 03:32:12;;;;;;;5.68;3.70;;;7.10;99.90;;;;;;5108736;28;20082;-87
2023/05/02 03:34:42;;;;;;;5.05;3.60;;;7.20;99.90;;;;;;5091587;28;20459;-88
2023/05/02 03:37:12;;;;;;;4.38;3.58;;;7.30;99.90;;;;;;5110486;28;20500;-87
2023/05/02 03:39:40;;;;;;;4.22;3.38;;;7.40;99.90;;;;;;5114220;28;20143;-87
2023/05/02 03:42:09;;;;;;;6.45;4.60;;;7.40;99.90;;;;;;5093347;28;20036;-85
2023/05/02 03:44:37;;;;;;;5.10;3.47;;;7.50;99.90;;;;;;5093344;28;20047;-88
2023/05/02 03:47:04;;;;;;;5.15;3.00;;;7.50;99.90;;;;;;5113021;28;20075;-87
2023/05/02 03:49:37;;;;;;;7.07;3.45;;;7.50;99.90;;;;;;5088518;28;20050;-85
2023/05/02 03:52:07;;;;;;;4.85;3.63;;;7.40;99.90;;;;;;5112254;28;20079;-85
2023/05/02 03:54:36;;;;;;;5.40;3.75;;;7.40;99.90;;;;;;5110347;28;20052;-82
2023/05/02 03:57:04;;;;;;;4.75;4.28;;;7.30;99.90;;;;;;5112049;28;20088;-85
2023/05/02 03:59:35;;;;;;;4.85;3.70;;;7.30;99.90;;;;;;5109634;28;20051;-86
2023/05/02 04:02:10;;;;;;;4.97;3.72;;;7.30;99.90;;;;;;5108177;28;20079;-87
2023/05/02 04:04:47;;;;;;;3.88;3.47;;;7.20;99.90;;;;;;5114551;28;20048;-86
2023/05/02 04:07:18;;;;;;;5.55;4.40;;;7.20;99.90;;;;;;5086945;28;20419;-83
2023/05/02 04:09:47;;;;;;;7.78;5.03;;;7.20;99.90;;;;;;5094201;28;20142;-86
2023/05/02 04:12:16;;;;;;;6.85;3.72;;;7.30;99.90;;;;;;5107422;28;20040;-84
2023/05/02 04:14:48;;;;;;;7.43;4.07;;;7.40;99.90;;;;;;5110798;28;20059;-84
2023/05/02 04:17:16;;;;;;;7.05;4.20;;;7.40;99.90;;;;;;5113371;28;20135;-86
2023/05/02 04:19:46;;;;;;;7.18;4.18;;;7.50;99.90;;;;;;5107008;28;20070;-79
2023/05/02 04:22:15;;;;;;;5.00;3.58;;;7.60;99.90;;;;;;5110829;28;20108;-79
2023/05/02 04:24:47;;;;;;;8.88;4.30;;;7.70;99.90;;;;;;5108572;28;20048;-78
2023/05/02 04:27:15;;;;;;;8.00;5.20;;;7.70;99.90;;;;;;5110127;27;20044;-80
2023/05/02 04:29:43;;;;;;;9.25;4.70;;;7.80;99.90;;;;;;5109513;28;20040;-79
2023/05/02 04:32:13;;;;;;;9.27;5.35;;;7.80;99.90;;;;;;5099213;28;20407;-77
2023/05/02 04:34:40;;;;;;;9.43;4.55;;;7.80;99.90;;;;;;5086709;28;20513;-76
2023/05/02 04:37:09;;;;;;;8.93;4.57;;;7.90;99.90;;;;;;5111904;27;20051;-77
2023/05/02 04:39:36;;;;;;;8.00;5.22;;;7.90;99.90;;;;;;5104983;28;20425;-77
2023/05/02 04:42:09;;;;;;;8.27;4.63;;;8.00;99.90;;;;;;5094467;28;20488;-77
2023/05/02 04:44:43;;;;;;;7.70;5.07;;;8.00;99.90;;;;;;5108119;28;20048;-78
2023/05/02 04:47:13;;;;;;;9.48;6.18;;;8.10;99.90;;;;;;5109734;28;20100;-77
2023/05/02 04:49:41;;;;;;;10.55;6.45;;;8.20;99.90;;;;;;5095119;28;20080;-79
2023/05/02 04:52:09;;;;;;;10.10;6.85;;;8.20;99.90;;;;;;5110553;28;20147;-81
2023/05/02 04:54:37;;;;;;;10.15;6.80;;;8.20;99.90;;;;;;5092829;28;20049;-82
2023/05/02 04:57:06;;;;;;;8.85;6.80;;;8.40;99.90;;;;;;5105254;28;20055;-81
2023/05/02 04:59:37;;;;;;;8.38;5.93;;;8.50;99.90;;;;;;5101695;28;20047;-82
2023/05/02 05:02:06;;;;;;;11.80;6.10;;;8.60;99.90;;;;;;5109969;28;20502;-81
2023/05/02 05:04:36;;;;;;;8.18;5.25;;;8.70;99.90;;;;;;5110272;28;20050;-82
2023/05/02 05:07:03;;;;;;;8.48;5.10;;;8.80;99.90;;;;;;5103501;28;20108;-82
2023/05/02 05:09:31;;;;;;;11.65;4.70;;;8.90;99.90;;;;;;5101893;28;20507;-82
2023/05/02 05:12:00;;;;;;;6.03;4.22;;;9.10;99.90;;;;;;5106895;28;20092;-84
2023/05/02 05:14:27;;;;;;;9.43;4.50;;;9.10;99.90;;;;;;5104944;28;20059;-85
2023/05/02 05:16:57;;;;;;;8.43;4.65;;;9.10;99.90;;;;;;5094613;28;20039;-84
2023/05/02 05:19:25;;;;;;;8.90;4.30;;;9.10;99.90;;;;;;5106935;28;20051;-87
2023/05/02 05:21:54;;;;;;;5.57;4.13;;;9.10;99.90;;;;;;5106336;28;20617;-89
2023/05/02 05:24:22;;;;;;;8.95;4.35;;;9.00;99.90;;;;;;5086174;28;20044;-86
2023/05/02 05:26:52;;;;;;;7.80;4.22;;;9.10;99.90;;;;;;5086915;28;20089;-86
2023/05/02 05:29:19;;;;;;;7.53;4.53;;;9.10;99.90;;;;;;5108506;28;20147;-86
2023/05/02 05:31:47;;;;;;;8.23;4.50;;;9.20;99.90;;;;;;5104957;28;20445;-87
2023/05/02 05:34:17;;;;;;;10.07;5.30;;;9.30;99.90;;;;;;5081785;28;20449;-87
2023/05/02 05:36:46;;;;;;;10.25;5.93;;;9.30;99.90;;;;;;5100978;28;20142;-85
2023/05/02 05:39:18;;;;;;;7.38;4.75;;;9.30;99.90;;;;;;5100759;28;20456;-85
2023/05/02 05:41:57;;;;;;;9.40;3.97;;;9.40;99.90;;;;;;5099701;28;20052;-84
2023/05/02 05:44:25;;;;;;;14.75;4.90;;;9.50;99.90;;;;;;5102294;28;20711;-87
2023/05/02 05:46:53;;;;;;;7.38;4.75;;;9.70;99.90;;;;;;5091604;28;20542;-82
2023/05/02 05:49:23;;;;;;;8.13;4.03;;;9.90;99.90;;;;;;5109276;27;20055;-86
2023/05/02 05:51:51;;;;;;;4.43;4.03;;;10.10;99.90;;;;;;5106101;27;20051;-84
2023/05/02 05:54:22;;;;;;;6.90;3.75;;;10.30;99.90;;;;;;5106818;28;20043;-85
2023/05/02 05:56:49;;;;;;;5.95;3.60;;;10.40;99.90;;;;;;5113206;27;20096;-83
2023/05/02 05:59:19;;;;;;;5.60;3.33;;;10.60;99.90;;;;;;5091840;28;20043;-84
2023/05/02 06:01:48;;;;;;;3.22;2.83;;;10.60;99.90;;;;;;5106194;28;20139;-87
2023/05/02 06:04:16;;;;;;;5.72;2.92;;;10.60;99.90;;;;;;5096695;28;20705;-84
2023/05/02 06:06:50;;;;;;;5.85;3.03;;;10.70;99.90;;;;;;5092276;28;20450;-75
2023/05/02 06:09:17;;;;;;;6.30;2.97;;;10.80;99.90;;;;;;5106761;28;20143;-83
2023/05/02 06:11:46;;;;;;;5.00;2.40;;;10.90;99.90;;;;;;5105963;28;20044;-77
2023/05/02 06:14:13;;;;;;;3.95;2.70;;;11.00;99.90;;;;;;5103172;28;20048;-77
2023/05/02 06:16:41;;;;;;;6.07;2.45;;;11.30;99.90;;;;;;5108040;28;20043;-78
2023/05/02 06:19:09;;;;;;;2.95;2.30;;;11.80;99.90;;;;;;5083563;28;20574;-81
2023/05/02 06:21:37;;;;;;;4.35;2.40;;;12.10;99.90;;;;;;5101445;27;20063;-78
2023/05/02 06:24:05;;;;;;;4.07;2.47;;;12.30;99.90;;;;;;5118462;27;20183;-79
2023/05/02 06:26:33;;;;;;;4.88;2.38;;;12.40;99.90;;;;;;5107951;28;20075;-80
2023/05/02 06:29:02;;;;;;;6.38;2.67;;;12.50;99.90;;;;;;5109958;28;20138;-78
2023/05/02 06:31:29;;;;;;;6.68;2.55;;;12.90;99.90;;;;;;5099797;28;20045;-74
2023/05/02 06:33:57;;;;;;;6.30;2.67;;;13.40;99.90;;;;;;5103769;28;20050;-75
2023/05/02 06:36:24;;;;;;;4.63;2.90;;;14.00;99.90;;;;;;5110054;28;20052;-77
2023/05/02 06:38:52;;;;;;;7.65;3.58;;;14.50;99.90;;;;;;5107286;28;20054;-76
2023/05/02 06:41:19;;;;;;;6.85;2.60;;;15.00;99.90;;;;;;5111327;28;20134;-76
2023/05/02 06:43:47;;;;;;;4.43;3.15;;;15.30;99.90;;;;;;5107541;28;20052;-75
2023/05/02 06:46:17;;;;;;;6.57;3.00;;;15.10;99.90;;;;;;5109709;28;20052;-77
2023/05/02 06:48:45;;;;;;;4.35;2.67;;;14.80;99.50;;;;;;5110842;28;20210;-77
2023/05/02 06:51:13;;;;;;;9.43;3.15;;;14.60;99.60;;;;;;5110524;28;20516;-74
2023/05/02 06:53:41;;;;;;;7.68;2.72;;;14.40;99.90;;;;;;5108818;28;20043;-73
2023/05/02 06:56:09;;;;;;;9.02;3.50;;;14.30;99.90;;;;;;5111155;28;20129;-70
2023/05/02 06:58:36;;;;;;;6.75;2.65;;;14.40;99.70;;;;;;5108081;28;20054;-72
2023/05/02 07:01:03;;;;;;;6.13;3.08;;;14.80;98.40;;;;;;5090583;28;20039;-70
2023/05/02 07:03:32;;;;;;;5.97;3.00;;;15.10;96.60;;;;;;5107716;28;20052;-72
2023/05/02 07:05:59;;;;;;;8.27;2.60;;;15.40;96.00;;;;;;5104987;28;20112;-71
2023/05/02 07:08:26;;;;;;;4.90;2.83;;;15.90;93.90;;;;;;5110295;28;20043;-73
2023/05/02 07:10:54;;;;;;;8.05;2.70;;;16.20;92.20;;;;;;5109844;28;20052;-71
2023/05/02 07:13:21;;;;;;;7.18;2.65;;;16.40;91.80;;;;;;5109568;28;20104;-71
2023/05/02 07:15:48;;;;;;;7.43;2.72;;;16.80;90.00;;;;;;5113191;28;20086;-73
2023/05/02 07:18:15;;;;;;;6.00;3.00;;;17.10;87.50;;;;;;5092716;28;20563;-73
2023/05/02 07:20:44;;;;;;;6.65;3.08;;;17.40;86.30;;;;;;5104892;28;20568;-74
2023/05/02 07:23:11;;;;;;;8.02;2.58;;;17.90;84.10;;;;;;5086009;28;20420;-74
2023/05/02 07:25:39;;;;;;;8.43;3.25;;;18.20;80.00;;;;;;5109428;28;20516;-73
2023/05/02 07:28:06;;;;;;;6.88;3.58;;;18.30;78.60;;;;;;5094289;28;20074;-73
2023/05/02 07:30:33;;;;;;;6.90;3.25;;;18.60;76.60;;;;;;5109787;28;20047;-73
2023/05/02 07:33:03;;;;;;;11.18;2.58;;;18.80;74.10;;;;;;5108409;28;20051;-77
2023/05/02 07:35:30;;;;;;;7.47;2.90;;;18.90;73.20;;;;;;5103829;28;20531;-77
2023/05/02 07:37:59;;;;;;;8.07;2.85;;;19.20;72.10;;;;;;5100944;28;20067;-77
2023/05/02 07:40:27;;;;;;;7.03;2.97;;;19.60;68.90;;;;;;5100252;28;20073;-78
2023/05/02 07:42:54;;;;;;;7.43;2.80;;;20.00;66.70;;;;;;5101444;28;20044;-78
2023/05/02 07:45:22;;;;;;;8.18;3.30;;;20.00;65.10;;;;;;5082307;28;20051;-78
2023/05/02 07:47:49;;;;;;;4.45;2.58;;;20.00;64.50;;;;;;5103675;28;20046;-76
2023/05/02 07:50:17;;;;;;;5.93;2.55;;;19.90;63.70;;;;;;5102002;28;20044;-77
2023/05/02 07:52:44;;;;;;;6.72;3.08;;;20.10;63.70;;;;;;5103707;28;20142;-77
2023/05/02 07:55:14;;;;;;;6.57;3.15;;;20.80;62.00;;;;;;5101951;28;20070;-76
2023/05/02 07:57:41;;;;;;;5.40;3.50;;;21.50;59.90;;;;;;5103401;28;20059;-78
2023/05/02 08:00:10;;;;;;;6.50;3.13;;;21.90;58.10;;;;;;5083358;28;20055;-76
2023/05/02 08:02:42;;;;;;;7.35;2.88;;;22.30;57.20;;;;;;5090305;28;20064;-76
2023/05/02 08:05:09;;;;;;;4.63;2.47;;;22.60;55.70;;;;;;5090487;28;20052;-78
2023/05/02 08:07:37;;;;;;;9.75;2.90;;;22.70;55.00;;;;;;5098762;28;20557;-77
2023/05/02 08:10:04;;;;;;;5.65;2.97;;;23.10;53.80;;;;;;5100412;28;20039;-77
2023/05/02 08:12:38;;;;;;;7.22;2.47;;;23.30;52.70;;;;;;5110003;28;20044;-77
2023/05/02 08:15:07;;;;;;;10.32;3.20;;;23.40;52.90;;;;;;5109216;28;20384;-77
2023/05/02 08:17:34;;;;;;;5.40;2.00;;;23.80;51.60;;;;;;5109144;28;20373;-78
2023/05/02 08:20:01;;;;;;;8.98;2.50;;;24.10;50.30;;;;;;5110101;28;20089;-77
2023/05/02 08:22:33;;;;;;;11.57;3.10;;;23.90;49.60;;;;;;5113237;28;20142;-77
2023/05/02 08:25:00;;;;;;;4.78;3.00;;;23.60;50.30;;;;;;5112235;28;20044;-77
2023/05/02 08:27:27;;;;;;;6.43;2.42;;;23.70;50.40;;;;;;5101613;28;20134;-77
2023/05/02 08:29:56;;;;;;;5.22;2.90;;;24.30;49.40;;;;;;5114109;27;20040;-76
2023/05/02 08:32:24;;;;;;;6.82;2.40;;;24.90;47.80;;;;;;5106732;28;20044;-76
2023/05/02 08:34:55;;;;;;;6.35;2.63;;;25.00;47.00;;;;;;5096239;28;20135;-76
2023/05/02 08:37:22;;;;;;;7.57;2.50;;;24.00;48.00;;;;;;5110410;28;20047;-76
2023/05/02 08:39:49;;;;;;;9.30;2.78;;;23.10;48.60;;;;;;5113456;28;20051;-77
2023/05/02 08:42:16;;;;;;;7.40;2.42;;;22.50;49.80;;;;;;5102316;28;20044;-79
2023/05/02 08:44:44;;;;;;;3.92;2.35;;;22.50;50.00;;;;;;5104641;28;20126;-80
2023/05/02 08:47:15;;;;;;;4.68;2.50;;;22.70;50.00;;;;;;5105664;28;20096;-77
2023/05/02 08:49:43;;;;;;;7.15;3.35;;;23.10;49.30;;;;;;5101806;28;20500;-80
2023/05/02 08:52:12;;;;;;;10.60;2.65;;;23.10;48.60;;;;;;5111056;28;20039;-77
2023/05/02 08:54:40;;;;;;;9.82;2.53;;;22.70;48.60;;;;;;5103499;28;20492;-77
2023/05/02 08:57:08;;;;;;;8.93;2.85;;;22.20;49.20;;;;;;5106046;28;20048;-77
2023/05/02 08:59:35;;;;;;;3.72;2.35;;;22.30;49.40;;;;;;5108150;28;20485;-78
2023/05/02 09:02:09;;;;;;;5.28;2.67;;;22.70;49.30;;;;;;5106721;28;20043;-77
2023/05/02 09:04:43;;;;;;;7.80;2.40;;;22.70;48.70;;;;;;5108433;28;20078;-78
2023/05/02 09:07:10;;;;;;;8.13;2.45;;;23.10;48.10;;;;;;5110064;28;20052;-77
2023/05/02 09:09:37;;;;;;;12.73;3.00;;;22.90;47.30;;;;;;5113440;28;20428;-77
2023/05/02 09:12:05;;;;;;;4.07;1.92;;;22.40;47.50;;;;;;5104147;28;20039;-78
2023/05/02 09:14:32;;;;;;;6.78;2.88;;;22.30;48.00;;;;;;5110975;28;20031;-78
2023/05/02 09:16:59;;;;;;;8.63;2.40;;;22.40;48.40;;;;;;5112016;28;20039;-76
2023/05/02 09:19:27;;;;;;;5.63;2.42;;;22.50;47.80;;;;;;5112003;28;20134;-76
2023/05/02 09:22:01;;;;;;;9.18;2.15;;;22.70;47.60;;;;;;5094126;28;20040;-75
2023/05/02 09:24:29;;;;;;;11.25;2.38;;;22.60;47.40;;;;;;5113264;28;20044;-75
2023/05/02 09:26:58;;;;;;;7.40;2.20;;;22.50;47.60;;;;;;5111296;28;20075;-75
2023/05/02 09:29:29;;;;;;;4.13;2.47;;;23.00;47.00;;;;;;5112044;27;20047;-75
2023/05/02 09:31:57;;;;;;;9.85;2.40;;;23.30;46.40;;;;;;5108793;28;20059;-75
2023/05/02 09:34:24;;;;;;;11.70;2.35;;;23.50;46.40;;;;;;5112030;28;20392;-77
2023/05/02 09:36:53;;;;;;;3.90;2.15;;;23.30;46.20;;;;;;5111179;28;20115;-75
2023/05/02 09:39:23;;;;;;;8.13;2.42;;;23.10;46.70;;;;;;5111137;28;20051;-76
2023/05/02 09:41:51;;;;;;;11.00;1.90;;;23.00;46.30;;;;;;5110205;28;20053;-76
2023/05/02 09:44:20;;;;;;;5.03;1.80;;;23.00;46.90;;;;;;5112784;28;20051;-75
2023/05/02 09:46:48;;;;;;;11.95;2.20;;;22.80;45.80;;;;;;5112225;28;20100;-74
2023/05/02 09:49:18;;;;;;;3.30;1.80;;;22.50;46.40;;;;;;5112212;28;20100;-75
2023/05/02 09:51:46;;;;;;;4.50;2.17;;;23.20;45.90;;;;;;5112201;28;20056;-77
2023/05/02 09:54:13;;;;;;;11.27;2.40;;;23.30;45.60;;;;;;5110649;28;20039;-78
2023/05/02 09:56:56;;;;;;;7.95;2.83;;;23.00;45.30;;;;;;5112579;28;20056;-77
2023/05/02 09:59:24;;;;;;;5.57;2.08;;;22.90;46.30;;;;;;5110842;27;20040;-78
2023/05/02 10:01:56;;;;;;;5.80;2.08;;;23.60;45.00;;;;;;5106136;28;20089;-78
2023/05/02 10:04:24;;;;;;;;;;;23.60;45.70;;;;;;5112737;28;20063;-78
2023/05/02 10:06:52;;;;;;;8.82;1.67;;;24.20;44.40;;;;;;5110500;28;19923;-78
2023/05/02 10:09:20;;;;;;;7.57;2.25;;;24.00;44.00;;;;;;5111244;27;20510;-77
2023/05/02 10:11:51;;;;;;;11.52;1.83;;;23.80;44.20;;;;;;5112050;28;20043;-78
2023/05/02 10:14:22;;;;;;;5.32;2.20;;;23.70;44.90;;;;;;5110959;28;20055;-78
2023/05/02 10:16:57;;;;;;;4.97;1.95;;;23.90;45.20;;;;;;5105116;28;20054;-79
2023/05/02 10:19:29;;;;;;;5.03;1.90;;;23.90;43.60;;;;;;5102039;28;20574;-77
2023/05/02 10:21:58;;;;;;;3.70;2.20;;;23.90;44.10;;;;;;5093030;28;20043;-78
2023/05/02 10:24:26;;;;;;;10.57;1.70;;;23.60;43.80;;;;;;5111192;28;20039;-78
2023/05/02 10:26:54;;;;;;;6.82;2.17;;;23.00;44.30;;;;;;5110893;28;20083;-78
2023/05/02 10:29:23;;;;;;;5.80;1.98;;;22.80;44.20;;;;;;5091695;28;20055;-79
2023/05/02 10:31:51;;;;;;;8.77;2.28;;;22.30;44.60;;;;;;5104623;28;20156;-80
2023/05/02 10:34:19;;;;;;;6.40;1.90;;;21.60;45.40;;;;;;5106005;28;20134;-79
2023/05/02 10:36:47;;;;;;;4.95;2.13;;;21.00;46.10;;;;;;5104428;28;20052;-80
2023/05/02 10:39:15;;;;;;;7.20;1.70;;;20.90;46.70;;;;;;5104825;28;20047;-79
2023/05/02 10:41:44;;;;;;;4.32;2.13;;;20.90;46.60;;;;;;5111061;28;20090;-79
2023/05/02 10:44:11;;;;;;;6.55;1.70;;;21.10;46.60;;;;;;5101674;28;20047;-80
2023/05/02 10:46:41;;;;;;;12.20;1.73;;;21.70;46.00;;;;;;5105837;28;20044;-79
2023/05/02 10:49:11;;;;;;;2.78;1.80;;;22.40;45.00;;;;;;5102842;28;20048;-80
2023/05/02 10:51:40;;;;;;;5.30;2.03;;;22.70;44.50;;;;;;5107259;28;20075;-80
2023/05/02 10:54:21;;;;;;;4.47;2.03;;;22.70;44.40;;;;;;5105627;28;20097;-80
2023/05/02 10:57:08;;;;;;;7.28;2.38;;;22.70;44.20;;;;;;5098349;28;20043;-80
2023/05/02 10:59:37;;;;;;;6.75;2.13;;;22.70;45.10;;;;;;5101171;28;20591;-82
2023/05/02 11:02:41;;;;;;;9.15;2.00;;;23.20;43.60;;;;;;5108626;28;20054;-83
2023/05/02 11:05:08;;;;;;;8.10;1.92;;;23.30;43.40;;;;;;5091767;28;20047;-80
2023/05/02 11:07:40;;;;;;;7.05;2.00;;;23.80;43.00;;;;;;5094934;28;20054;-81
2023/05/02 11:10:27;;;;;;;4.82;1.67;;;24.40;42.00;;;;;;5105919;28;20052;-83
2023/05/02 11:12:55;;;;;;;3.60;1.80;;;24.80;42.00;;;;;;5121136;27;20146;-82
2023/05/02 11:15:54;;;;;;;7.35;2.10;;;25.30;41.30;;;;;;5092640;28;20101;-83
2023/05/02 11:18:23;;;;;;;7.85;1.92;;;25.60;40.10;;;;;;5110546;28;20465;-80
2023/05/02 11:20:50;;;;;;;4.50;1.80;;;25.10;41.10;;;;;;5109812;28;20135;-80
2023/05/02 11:23:25;;;;;;;10.35;1.90;;;24.10;41.50;;;;;;5111712;27;20051;-80
2023/05/02 11:25:55;;;;;;;6.90;1.95;;;23.70;42.10;;;;;;5111742;28;20059;-77
2023/05/02 11:28:46;;;;;;;6.75;1.75;;;24.30;42.10;;;;;;5107823;28;20486;-78
2023/05/02 11:32:04;;;;;;;8.18;1.92;;;24.70;40.80;;;;;;5093010;28;20051;-77
2023/05/02 11:34:46;;;;;;;7.15;1.92;;;24.60;41.00;;;;;;5094530;28;20074;-81
2023/05/02 11:37:15;;;;;;;6.03;2.05;;;25.50;40.10;;;;;;5105570;28;20040;-81
2023/05/02 11:39:42;;;;;;;6.43;1.65;;;26.20;39.50;;;;;;5105367;28;20054;-81
2023/05/02 11:42:10;;;;;;;6.55;2.10;;;26.70;38.30;;;;;;5103423;28;20044;-80
2023/05/02 11:44:55;;;;;;;7.22;1.73;;;26.80;38.10;;;;;;5100428;28;20457;-82
2023/05/02 11:47:23;;;;;;;10.10;2.33;;;27.20;37.60;;;;;;5109719;28;20087;-81
2023/05/02 11:49:51;;;;;;;11.13;1.70;;;27.60;37.40;;;;;;5103653;28;20474;-80
2023/05/02 11:52:18;;;;;;;10.82;1.95;;;27.70;36.70;;;;;;5100702;28;20052;-78
2023/05/02 11:54:46;;;;;;;13.27;1.98;;;27.30;37.30;;;;;;5098773;28;20072;-80
2023/05/02 11:57:14;;;;;;;11.15;2.05;;;27.90;36.50;;;;;;5104367;28;20043;-79
2023/05/02 11:59:53;;;;;;;5.50;1.65;;;27.90;35.90;;;;;;5103127;28;20054;-78
2023/05/02 12:02:21;;;;;;;2.38;1.60;;;27.90;36.30;;;;;;5110654;28;20093;-78
2023/05/02 12:04:48;;;;;;;5.05;2.10;;;27.90;36.20;;;;;;5105561;28;20043;-78
2023/05/02 12:07:16;;;;;;;6.07;1.60;;;27.60;36.50;;;;;;5101301;28;20097;-78
2023/05/02 12:09:54;;;;;;;5.80;1.90;;;26.60;36.70;;;;;;5111248;28;20071;-79
2023/05/02 12:12:21;;;;;;;10.73;1.77;;;25.60;37.90;;;;;;5112662;28;20134;-78
2023/05/02 12:14:49;;;;;;;5.68;1.95;;;25.60;37.90;;;;;;5103691;28;20409;-78
2023/05/02 12:17:17;;;;;;;6.90;1.67;;;26.00;37.50;;;;;;5106190;28;20075;-78
2023/05/02 12:19:47;;;;;;;5.72;1.85;;;25.90;37.20;;;;;;5102304;28;20039;-84
2023/05/02 12:22:19;;;;;;;11.18;2.67;;;25.50;37.90;;;;;;5090740;28;20132;-82
2023/05/02 12:24:48;;;;;;;7.78;1.45;;;25.80;37.60;;;;;;5111603;28;20058;-83
2023/05/02 12:27:16;;;;;;;5.32;1.55;;;26.20;37.60;;;;;;5106488;28;20044;-81
2023/05/02 12:29:44;;;;;;;4.90;1.60;;;26.30;37.20;;;;;;5101875;28;20055;-79
2023/05/02 12:32:13;;;;;;;5.13;1.60;;;25.40;37.20;;;;;;5108280;28;20059;-81
2023/05/02 12:34:44;;;;;;;4.47;1.88;;;24.40;37.70;;;;;;5106087;27;20047;-81
2023/05/02 12:37:14;;;;;;;7.68;1.38;;;23.90;38.70;;;;;;5110315;28;20043;-80
2023/05/02 12:39:47;;;;;;;6.65;1.90;;;23.30;39.30;;;;;;5104342;27;20043;-81
2023/05/02 12:42:15;;;;;;;3.63;1.80;;;22.90;39.70;;;;;;5117217;27;20147;-80
2023/05/02 12:44:45;;;;;;;6.57;1.40;;;22.60;40.10;;;;;;5106211;27;20048;-82
2023/05/02 12:47:14;;;;;;;6.07;1.83;;;22.60;40.00;;;;;;5109813;28;20515;-80
2023/05/02 12:49:51;;;;;;;4.03;1.67;;;22.30;40.30;;;;;;5103040;27;20048;-77
2023/05/02 12:52:19;;;;;;;5.05;1.50;;;22.20;40.70;;;;;;5108916;28;20130;-77
2023/05/02 12:54:48;;;;;;;4.75;1.65;;;21.90;40.40;;;;;;5100964;27;20051;-80
2023/05/02 12:57:23;;;;;;;6.53;1.83;;;21.80;41.10;;;;;;5103718;28;20058;-79
2023/05/02 12:59:53;;;;;;;3.40;1.40;;;22.10;40.30;;;;;;5116222;27;20039;-81
2023/05/02 13:02:24;;;;;;;6.00;1.73;;;22.70;40.30;;;;;;5103947;28;20035;-81
2023/05/02 13:04:52;;;;;;;6.38;1.40;;;23.60;39.00;;;;;;5100083;27;20066;-83